Time;durP1;ratioP1;P1;durP2;ratioP2;P2;SDS_P1;SDS_P2;PMS_P1;PMS_P2;Temp;Humidity;BMP_temperature;BMP_pressure;BME280_temperature;BME280_humidity;BME280_pressure;Samples;Min_cycle;Max_cycle;Signal;HPM_P1;HPM_P2
2021/03/15 00:00:58;;;;;;;5.70;1.60;;;6.50;99.90;;;;;;5035667;28;20115;-66
2021/03/15 00:03:25;;;;;;;4.43;0.70;;;6.50;99.90;;;;;;5039275;28;20045;-66
2021/03/15 00:05:50;;;;;;;3.78;0.90;;;6.40;99.90;;;;;;5035848;28;20116;-64
2021/03/15 00:08:16;;;;;;;11.43;1.00;;;6.50;99.90;;;;;;5035136;28;20549;-66
2021/03/15 00:10:42;;;;;;;7.25;0.60;;;6.40;99.90;;;;;;5032467;28;20040;-66
2021/03/15 00:13:08;;;;;;;4.28;0.70;;;6.50;99.90;;;;;;5036274;28;20032;-68
2021/03/15 00:15:34;;;;;;;5.22;0.68;;;6.40;99.90;;;;;;5035023;28;20033;-66
2021/03/15 00:18:01;;;;;;;2.38;0.60;;;6.40;99.90;;;;;;5034437;28;20033;-66
2021/03/15 00:20:26;;;;;;;3.38;0.70;;;6.40;99.90;;;;;;5039235;28;20092;-66
2021/03/15 00:22:52;;;;;;;5.25;0.88;;;6.50;99.90;;;;;;5039252;28;20034;-66
2021/03/15 00:25:18;;;;;;;4.20;0.70;;;6.50;99.90;;;;;;5038822;28;20041;-66
2021/03/15 00:27:45;;;;;;;1.98;0.73;;;6.50;99.90;;;;;;5033689;28;20025;-66
2021/03/15 00:30:13;;;;;;;3.63;0.50;;;6.50;99.90;;;;;;5035992;28;20029;-66
2021/03/15 00:32:40;;;;;;;6.05;1.20;;;6.50;99.90;;;;;;5036590;28;20029;-66
2021/03/15 00:35:07;;;;;;;4.30;0.65;;;6.50;99.90;;;;;;5040524;28;20107;-66
2021/03/15 00:37:33;;;;;;;3.08;0.40;;;6.50;99.90;;;;;;5043048;28;20500;-66
2021/03/15 00:39:59;;;;;;;4.82;0.43;;;6.40;99.90;;;;;;5046551;28;20037;-66
2021/03/15 00:42:24;;;;;;;3.42;0.30;;;6.40;99.90;;;;;;5039725;28;20029;-66
2021/03/15 00:44:50;;;;;;;3.95;0.60;;;6.40;99.90;;;;;;5033077;28;20060;-64
2021/03/15 00:47:16;;;;;;;3.08;0.32;;;6.40;99.90;;;;;;5035979;28;20424;-65
2021/03/15 00:49:41;;;;;;;1.27;0.35;;;6.40;99.90;;;;;;5035711;28;20127;-66
2021/03/15 00:52:07;;;;;;;4.82;0.80;;;6.40;99.90;;;;;;5034992;28;20389;-66
2021/03/15 00:54:32;;;;;;;3.03;0.30;;;6.50;99.90;;;;;;5038463;28;20382;-65
2021/03/15 00:56:58;;;;;;;7.35;1.65;;;6.50;99.90;;;;;;5034635;28;20115;-69
2021/03/15 00:59:23;;;;;;;1.30;0.43;;;6.50;99.90;;;;;;5037478;28;20038;-66
2021/03/15 01:01:50;;;;;;;3.40;0.73;;;6.50;99.90;;;;;;5034049;28;20040;-65
2021/03/15 01:04:16;;;;;;;4.47;0.60;;;6.50;99.90;;;;;;5032429;28;20041;-64
2021/03/15 01:06:42;;;;;;;10.02;1.02;;;6.50;99.90;;;;;;5038540;28;20037;-66
2021/03/15 01:09:09;;;;;;;3.80;0.85;;;6.50;99.90;;;;;;5039736;28;20661;-66
2021/03/15 01:11:34;;;;;;;4.20;0.73;;;6.50;99.90;;;;;;5035923;28;20030;-66
2021/03/15 01:14:00;;;;;;;1.58;0.55;;;6.50;99.90;;;;;;5027717;28;20028;-65
2021/03/15 01:16:26;;;;;;;7.18;1.40;;;6.60;99.90;;;;;;5038905;28;20052;-65
2021/03/15 01:18:51;;;;;;;6.30;1.48;;;6.50;99.90;;;;;;5037258;28;20033;-66
2021/03/15 01:21:17;;;;;;;4.68;0.88;;;6.60;99.90;;;;;;5037506;28;20057;-65
2021/03/15 01:23:42;;;;;;;5.55;1.45;;;6.60;99.90;;;;;;5038202;28;20681;-66
2021/03/15 01:26:08;;;;;;;3.13;0.60;;;6.60;99.90;;;;;;5035436;28;20497;-65
2021/03/15 01:28:34;;;;;;;4.53;0.77;;;6.60;99.90;;;;;;5034514;28;20048;-66
2021/03/15 01:31:00;;;;;;;3.55;0.65;;;6.50;99.90;;;;;;5032160;28;20113;-67
2021/03/15 01:33:26;;;;;;;2.78;0.85;;;6.50;99.90;;;;;;5036985;28;20033;-66
2021/03/15 01:35:52;;;;;;;2.83;0.85;;;6.50;99.90;;;;;;5035529;28;20051;-65
2021/03/15 01:38:18;;;;;;;2.88;0.50;;;6.40;99.90;;;;;;5036033;28;20034;-66
2021/03/15 01:40:43;;;;;;;12.70;1.75;;;6.40;99.90;;;;;;5040816;28;20036;-66
2021/03/15 01:43:09;;;;;;;5.50;0.80;;;6.30;99.90;;;;;;5040324;28;20088;-65
2021/03/15 01:45:36;;;;;;;7.68;1.98;;;6.30;99.90;;;;;;5040035;28;20030;-66
2021/03/15 01:48:05;;;;;;;9.20;1.10;;;6.30;99.90;;;;;;5041549;28;20060;-66
2021/03/15 01:50:31;;;;;;;3.70;0.82;;;6.30;99.90;;;;;;5035886;28;20039;-66
2021/03/15 01:52:56;;;;;;;4.22;0.80;;;6.30;99.90;;;;;;5038430;28;20037;-66
2021/03/15 01:55:23;;;;;;;4.18;1.08;;;6.30;99.90;;;;;;5042309;28;20048;-66
2021/03/15 01:57:49;;;;;;;3.70;0.90;;;6.30;99.90;;;;;;5039300;28;20025;-66
2021/03/15 02:00:17;;;;;;;13.55;1.52;;;6.30;99.90;;;;;;5041701;28;20095;-66
2021/03/15 02:02:52;;;;;;;4.53;0.85;;;6.30;99.90;;;;;;5043279;28;20577;-66
2021/03/15 02:05:18;;;;;;;2.40;0.88;;;6.20;99.90;;;;;;5043409;28;20124;-68
2021/03/15 02:07:44;;;;;;;3.95;0.70;;;6.20;99.90;;;;;;5041067;28;20064;-66
2021/03/15 02:10:10;;;;;;;5.25;0.90;;;6.10;99.90;;;;;;5047488;28;20116;-66
2021/03/15 02:13:16;;;;;;;10.23;0.90;;;6.10;99.90;;;;;;5046851;28;20048;-66
2021/03/15 02:16:19;;;;;;;4.00;1.33;;;6.10;99.90;;;;;;5053257;28;20055;-66
2021/03/15 02:18:55;;;;;;;4.75;0.75;;;6.10;99.90;;;;;;5040232;28;20506;-66
2021/03/15 02:21:45;;;;;;;3.10;0.80;;;6.10;99.90;;;;;;5041040;28;20040;-67
2021/03/15 02:24:31;;;;;;;7.60;1.30;;;6.10;99.90;;;;;;5036425;28;20044;-65
2021/03/15 02:27:24;;;;;;;7.47;1.92;;;6.10;99.90;;;;;;5034297;28;20386;-66
2021/03/15 02:30:11;;;;;;;6.97;1.33;;;6.00;99.90;;;;;;5040142;28;20044;-66
2021/03/15 02:33:01;;;;;;;4.70;1.05;;;5.90;99.90;;;;;;5036448;28;20076;-65
2021/03/15 02:35:33;;;;;;;3.95;1.42;;;5.90;99.90;;;;;;5034752;28;20033;-65
2021/03/15 02:38:07;;;;;;;8.48;1.52;;;5.90;99.90;;;;;;5034495;28;20033;-66
2021/03/15 02:40:40;;;;;;;9.73;2.22;;;5.90;99.90;;;;;;5035832;28;20038;-68
2021/03/15 02:43:16;;;;;;;3.58;1.58;;;5.90;99.90;;;;;;5040742;28;20119;-66
2021/03/15 02:45:44;;;;;;;7.25;1.88;;;6.00;99.90;;;;;;5039662;28;20506;-71
2021/03/15 02:48:12;;;;;;;8.48;1.75;;;6.00;99.90;;;;;;5040074;28;20124;-66
2021/03/15 02:50:40;;;;;;;7.75;2.15;;;6.00;99.90;;;;;;5039537;28;20039;-65
2021/03/15 02:53:10;;;;;;;11.07;2.47;;;6.00;99.90;;;;;;5040462;28;20029;-65
2021/03/15 02:55:37;;;;;;;8.43;1.90;;;6.10;99.90;;;;;;5038092;28;20029;-65
2021/03/15 02:58:04;;;;;;;6.82;2.30;;;6.10;99.90;;;;;;5041127;28;20538;-65
2021/03/15 03:00:31;;;;;;;12.68;2.80;;;6.10;99.90;;;;;;5041519;28;20025;-67
2021/03/15 03:02:58;;;;;;;5.60;2.03;;;6.10;99.90;;;;;;5035832;28;20493;-64
2021/03/15 03:05:24;;;;;;;7.68;2.50;;;6.10;99.90;;;;;;5041554;28;20033;-65
2021/03/15 03:07:53;;;;;;;7.75;2.25;;;6.10;99.90;;;;;;5036831;28;20399;-64
2021/03/15 03:10:22;;;;;;;4.75;1.48;;;6.10;99.90;;;;;;5039314;28;20119;-66
2021/03/15 03:12:50;;;;;;;11.30;2.78;;;6.20;99.90;;;;;;5038208;28;20025;-68
2021/03/15 03:15:18;;;;;;;5.05;1.52;;;6.10;99.90;;;;;;5040215;28;20037;-66
2021/03/15 03:17:44;;;;;;;9.38;2.33;;;6.10;99.90;;;;;;5037725;28;20025;-65
2021/03/15 03:20:13;;;;;;;7.28;1.92;;;6.10;99.90;;;;;;5037844;28;20045;-65
2021/03/15 03:22:45;;;;;;;10.98;1.60;;;6.10;99.90;;;;;;5037887;28;20037;-65
2021/03/15 03:25:15;;;;;;;5.90;2.05;;;6.10;99.90;;;;;;5036408;28;20033;-65
2021/03/15 03:27:42;;;;;;;7.30;1.60;;;6.20;99.90;;;;;;5035462;28;20033;-65
2021/03/15 03:30:10;;;;;;;4.60;2.03;;;6.20;99.90;;;;;;5039206;28;20284;-65
2021/03/15 03:32:39;;;;;;;9.57;1.80;;;6.20;99.90;;;;;;5038551;28;20063;-65
2021/03/15 03:35:06;;;;;;;7.55;2.90;;;6.20;99.90;;;;;;5039295;28;20033;-65
2021/03/15 03:37:31;;;;;;;9.15;2.25;;;6.20;99.90;;;;;;5035650;28;20044;-65
2021/03/15 03:39:57;;;;;;;11.43;2.10;;;6.30;99.90;;;;;;5036784;28;20028;-65
2021/03/15 03:42:22;;;;;;;9.35;2.30;;;6.20;99.90;;;;;;5037023;28;20049;-65
2021/03/15 03:44:49;;;;;;;8.52;2.45;;;6.20;99.90;;;;;;5037122;28;20121;-65
2021/03/15 03:47:16;;;;;;;10.25;2.47;;;6.30;99.90;;;;;;5039147;28;20083;-65
2021/03/15 03:49:42;;;;;;;6.38;2.30;;;6.30;99.90;;;;;;5038092;28;20037;-65
2021/03/15 03:52:08;;;;;;;10.32;2.20;;;6.30;99.90;;;;;;5037248;28;20033;-65
2021/03/15 03:54:39;;;;;;;7.85;2.90;;;6.30;99.90;;;;;;5040541;28;20021;-65
2021/03/15 03:57:09;;;;;;;13.77;2.67;;;6.40;99.90;;;;;;5032113;28;20037;-65
2021/03/15 03:59:37;;;;;;;9.88;1.95;;;6.30;99.90;;;;;;5039332;28;20060;-65
2021/03/15 04:02:04;;;;;;;9.82;3.08;;;6.30;99.90;;;;;;5037436;28;20033;-66
2021/03/15 04:04:37;;;;;;;11.35;3.55;;;6.30;99.90;;;;;;5039687;28;20547;-65
2021/03/15 04:07:04;;;;;;;14.68;2.28;;;6.30;99.90;;;;;;5038762;28;20025;-65
2021/03/15 04:09:35;;;;;;;12.45;2.58;;;6.40;99.90;;;;;;5037520;28;20029;-65
2021/03/15 04:12:09;;;;;;;12.25;3.22;;;6.40;99.90;;;;;;5038828;28;20057;-65
2021/03/15 04:14:48;;;;;;;6.95;2.40;;;6.40;99.90;;;;;;5036805;28;20084;-65
2021/03/15 04:17:19;;;;;;;17.13;2.22;;;6.40;99.90;;;;;;5039031;28;20081;-65
2021/03/15 04:20:08;;;;;;;15.93;3.80;;;6.40;99.90;;;;;;5037256;28;20767;-65
2021/03/15 04:22:43;;;;;;;7.55;2.45;;;6.40;99.90;;;;;;5032222;28;20465;-65
2021/03/15 04:25:10;;;;;;;8.18;2.72;;;6.40;99.90;;;;;;5036065;28;20025;-65
2021/03/15 04:27:36;;;;;;;7.95;2.65;;;6.50;99.90;;;;;;5038217;28;20525;-65
2021/03/15 04:30:03;;;;;;;17.33;4.18;;;6.40;99.90;;;;;;5040157;28;20036;-65
2021/03/15 04:32:28;;;;;;;11.45;2.80;;;6.40;99.90;;;;;;5036876;28;20049;-66
2021/03/15 04:34:54;;;;;;;6.75;3.47;;;6.40;99.90;;;;;;5037093;28;20622;-65
2021/03/15 04:37:21;;;;;;;11.48;3.97;;;6.40;99.90;;;;;;5036262;28;20033;-65
2021/03/15 04:39:48;;;;;;;10.27;3.33;;;6.40;99.90;;;;;;5035980;28;20056;-65
2021/03/15 04:42:14;;;;;;;10.30;3.58;;;6.40;99.90;;;;;;5044927;28;20033;-65
2021/03/15 04:44:40;;;;;;;17.85;4.20;;;6.40;99.90;;;;;;5046971;28;20036;-65
2021/03/15 04:47:06;;;;;;;15.80;3.45;;;6.40;99.90;;;;;;5042635;28;20028;-65
2021/03/15 04:49:32;;;;;;;8.02;3.20;;;6.30;99.90;;;;;;5038622;28;20053;-65
2021/03/15 04:52:00;;;;;;;6.10;3.08;;;6.40;99.90;;;;;;5037531;28;20034;-65
2021/03/15 04:54:25;;;;;;;13.48;3.55;;;6.40;99.90;;;;;;5038568;28;20044;-65
2021/03/15 04:56:53;;;;;;;7.90;4.03;;;6.40;99.90;;;;;;5035935;28;20033;-65
2021/03/15 04:59:19;;;;;;;8.48;3.38;;;6.30;99.90;;;;;;5032163;28;20037;-66
2021/03/15 05:01:47;;;;;;;12.05;3.30;;;6.40;99.90;;;;;;5035862;28;20376;-65
2021/03/15 05:04:14;;;;;;;15.43;3.95;;;6.40;99.90;;;;;;5036959;28;20025;-65
2021/03/15 05:06:42;;;;;;;8.02;3.03;;;6.30;99.90;;;;;;5040027;28;20453;-65
2021/03/15 05:09:09;;;;;;;9.27;3.67;;;6.40;99.90;;;;;;5033692;28;20025;-65
2021/03/15 05:11:37;;;;;;;13.77;2.97;;;6.40;99.90;;;;;;5035052;28;20047;-65
2021/03/15 05:14:04;;;;;;;9.18;2.95;;;6.40;99.90;;;;;;5042681;28;20026;-65
2021/03/15 05:16:35;;;;;;;14.55;2.67;;;6.40;99.90;;;;;;5035358;28;20033;-65
2021/03/15 05:19:01;;;;;;;;;;;6.40;99.90;;;;;;5041206;28;20025;-65
2021/03/15 05:21:28;;;;;;;11.38;2.60;;;6.40;99.90;;;;;;5038336;28;19913;-65
2021/03/15 05:23:56;;;;;;;7.78;3.03;;;6.30;99.90;;;;;;5040353;28;20040;-65
2021/03/15 05:26:23;;;;;;;17.15;4.35;;;6.40;99.90;;;;;;5043223;28;20510;-65
2021/03/15 05:28:50;;;;;;;8.43;1.60;;;6.30;99.90;;;;;;5039969;28;20033;-65
2021/03/15 05:31:18;;;;;;;8.30;2.65;;;6.20;99.90;;;;;;5025594;28;20053;-65
2021/03/15 05:33:45;;;;;;;12.18;2.53;;;6.20;99.90;;;;;;5035212;28;20060;-65
2021/03/15 05:36:14;;;;;;;8.35;1.60;;;6.10;99.90;;;;;;5035139;28;20025;-65
2021/03/15 05:38:40;;;;;;;9.45;2.60;;;6.10;99.90;;;;;;5036488;28;20048;-65
2021/03/15 05:41:11;;;;;;;6.65;2.05;;;6.10;99.90;;;;;;5038358;28;20148;-65
2021/03/15 05:43:42;;;;;;;;;;;6.00;99.90;;;;;;5034444;28;20041;-65
2021/03/15 05:46:26;;;;;;;7.75;1.67;;;6.00;99.90;;;;;;5041284;28;19940;-65
2021/03/15 05:49:06;;;;;;;4.18;1.30;;;6.00;99.90;;;;;;5030517;28;20037;-65
2021/03/15 05:51:32;;;;;;;7.88;1.40;;;5.90;99.90;;;;;;5044729;28;20542;-66
2021/03/15 05:54:09;;;;;;;7.43;1.30;;;5.90;99.90;;;;;;5050207;28;20056;-65
2021/03/15 05:56:56;;;;;;;6.63;1.77;;;5.90;99.90;;;;;;5036850;28;20621;-65
2021/03/15 05:59:57;;;;;;;8.35;2.00;;;5.80;99.90;;;;;;5031161;28;20036;-65
2021/03/15 06:02:50;;;;;;;6.60;1.38;;;5.80;99.90;;;;;;5026463;28;20037;-65
2021/03/15 06:05:24;;;;;;;11.52;1.67;;;5.70;99.90;;;;;;5033305;28;20456;-65
2021/03/15 06:07:53;;;;;;;5.70;1.00;;;5.70;99.90;;;;;;5039436;28;20128;-65
2021/03/15 06:10:37;;;;;;;7.60;1.13;;;5.70;99.90;;;;;;5036088;28;20038;-65
2021/03/15 06:13:14;;;;;;;19.88;1.88;;;5.70;99.90;;;;;;5036335;28;20033;-65
2021/03/15 06:15:44;;;;;;;8.50;1.88;;;5.70;99.90;;;;;;5037892;28;20037;-65
2021/03/15 06:18:13;;;;;;;15.32;1.83;;;5.80;99.90;;;;;;5038471;28;20037;-65
2021/03/15 06:20:49;;;;;;;10.38;1.38;;;5.80;99.90;;;;;;5038202;28;20033;-64
2021/03/15 06:23:16;;;;;;;6.97;1.00;;;5.80;99.90;;;;;;5029434;28;20049;-65
2021/03/15 06:25:43;;;;;;;14.68;1.58;;;5.80;99.90;;;;;;5039952;28;20025;-64
2021/03/15 06:28:10;;;;;;;25.98;4.07;;;5.80;99.90;;;;;;5036608;28;20037;-65
2021/03/15 06:30:36;;;;;;;18.90;2.47;;;5.80;99.90;;;;;;5037554;28;20117;-64
2021/03/15 06:33:02;;;;;;;17.58;2.92;;;5.80;99.90;;;;;;5041946;28;20036;-65
2021/03/15 06:35:30;;;;;;;9.82;1.50;;;5.70;99.90;;;;;;5043917;28;20025;-65
2021/03/15 06:37:56;;;;;;;14.48;1.95;;;5.80;99.90;;;;;;5040411;28;20057;-65
2021/03/15 06:40:22;;;;;;;9.18;1.58;;;5.80;99.90;;;;;;5038405;28;20038;-65
2021/03/15 06:42:50;;;;;;;8.80;1.52;;;5.80;99.90;;;;;;5041802;28;20108;-65
2021/03/15 06:45:19;;;;;;;10.95;2.63;;;5.80;99.90;;;;;;5045308;28;20462;-65
2021/03/15 06:47:44;;;;;;;5.63;1.80;;;5.80;99.90;;;;;;5043733;28;20029;-64
2021/03/15 06:50:11;;;;;;;18.75;2.35;;;5.90;99.90;;;;;;5041058;28;20098;-65
2021/03/15 06:52:53;;;;;;;39.65;4.47;;;5.90;99.90;;;;;;5045265;28;20048;-65
2021/03/15 06:55:21;;;;;;;5.43;1.17;;;6.00;99.90;;;;;;5033905;28;20137;-65
2021/03/15 06:57:47;;;;;;;11.55;1.25;;;6.00;99.90;;;;;;5035258;28;20450;-65
2021/03/15 07:00:13;;;;;;;31.00;2.60;;;6.10;99.90;;;;;;5035243;28;20117;-64
2021/03/15 07:02:41;;;;;;;12.68;2.22;;;6.30;99.90;;;;;;5037329;28;20045;-65
2021/03/15 07:05:14;;;;;;;10.50;1.50;;;6.40;99.90;;;;;;5036124;28;20822;-65
2021/03/15 07:07:49;;;;;;;12.80;1.30;;;6.50;99.90;;;;;;5033031;28;20063;-65
2021/03/15 07:10:29;;;;;;;18.70;2.08;;;6.60;99.90;;;;;;5037810;28;20033;-65
2021/03/15 07:13:08;;;;;;;11.80;1.58;;;6.70;99.90;;;;;;5040921;28;20512;-64
2021/03/15 07:15:34;;;;;;;14.63;1.50;;;6.60;99.90;;;;;;5037940;28;20033;-65
2021/03/15 07:18:20;;;;;;;12.43;1.63;;;6.60;99.90;;;;;;5037657;28;20029;-65
2021/03/15 07:20:51;;;;;;;8.55;1.80;;;6.70;99.90;;;;;;5043650;28;20095;-65
2021/03/15 07:23:47;;;;;;;12.15;1.50;;;6.70;99.90;;;;;;5040749;28;20041;-65
2021/03/15 07:26:13;;;;;;;9.90;1.40;;;6.90;99.90;;;;;;5037822;28;20358;-65
2021/03/15 07:28:39;;;;;;;11.10;1.20;;;7.00;99.90;;;;;;5028132;28;20043;-64
2021/03/15 07:31:20;;;;;;;13.45;1.27;;;7.00;99.90;;;;;;5044535;28;20028;-65
2021/03/15 07:33:55;;;;;;;10.73;2.03;;;7.10;99.90;;;;;;5038580;28;20087;-64
2021/03/15 07:36:32;;;;;;;10.82;2.05;;;7.10;99.90;;;;;;5043325;28;20049;-65
2021/03/15 07:38:59;;;;;;;20.10;1.77;;;7.30;99.90;;;;;;5044358;28;20044;-66
2021/03/15 07:41:24;;;;;;;5.43;0.88;;;7.50;99.90;;;;;;5042711;28;20128;-66
2021/03/15 07:43:51;;;;;;;9.95;1.98;;;7.80;99.90;;;;;;5041822;28;20617;-65
2021/03/15 07:46:24;;;;;;;11.60;2.15;;;8.00;99.90;;;;;;5036509;28;20068;-65
2021/03/15 07:48:51;;;;;;;18.63;2.22;;;7.90;99.90;;;;;;5025391;28;20513;-65
2021/03/15 07:51:33;;;;;;;16.75;2.05;;;7.90;99.90;;;;;;5032097;28;20025;-65
2021/03/15 07:54:04;;;;;;;12.18;1.85;;;7.70;99.90;;;;;;5043105;28;20049;-65
2021/03/15 07:56:30;;;;;;;12.60;1.50;;;7.60;99.90;;;;;;5039382;28;20069;-65
2021/03/15 07:58:55;;;;;;;5.93;0.70;;;7.50;99.90;;;;;;5039543;28;20443;-65
2021/03/15 08:01:23;;;;;;;5.18;0.45;;;7.40;99.90;;;;;;5038717;28;20051;-64
2021/03/15 08:03:49;;;;;;;6.75;1.15;;;7.30;99.90;;;;;;5039907;28;20048;-64
2021/03/15 08:06:15;;;;;;;6.80;0.75;;;7.10;99.90;;;;;;5043479;28;20037;-64
2021/03/15 08:08:41;;;;;;;7.18;1.15;;;7.00;99.90;;;;;;5042092;28;20037;-64
2021/03/15 08:11:10;;;;;;;8.63;0.98;;;6.90;99.90;;;;;;5043187;28;20028;-65
2021/03/15 08:13:39;;;;;;;4.28;0.50;;;6.90;99.90;;;;;;5039241;28;20037;-64
2021/03/15 08:16:05;;;;;;;8.35;1.30;;;6.90;99.90;;;;;;5040904;28;20414;-65
2021/03/15 08:18:32;;;;;;;6.90;1.08;;;7.00;99.90;;;;;;5042208;28;20129;-64
2021/03/15 08:21:06;;;;;;;11.23;2.13;;;7.10;99.90;;;;;;5042771;28;20160;-65
2021/03/15 08:23:37;;;;;;;4.65;1.15;;;7.30;99.90;;;;;;5039816;28;20120;-65
2021/03/15 08:26:05;;;;;;;9.10;1.20;;;7.60;99.90;;;;;;5038853;28;20040;-64
2021/03/15 08:28:35;;;;;;;6.07;1.63;;;7.90;99.90;;;;;;5036860;28;20040;-65
2021/03/15 08:31:12;;;;;;;7.53;0.57;;;8.00;99.90;;;;;;5036365;28;20406;-65
2021/03/15 08:33:38;;;;;;;7.95;1.63;;;8.10;99.90;;;;;;5032464;28;20144;-65
2021/03/15 08:36:05;;;;;;;13.57;1.70;;;8.30;99.90;;;;;;5040075;28;20135;-64
2021/03/15 08:38:33;;;;;;;12.27;1.08;;;8.50;99.90;;;;;;5041496;28;20649;-64
2021/03/15 08:41:00;;;;;;;11.57;1.33;;;8.50;99.90;;;;;;5040340;28;20139;-64
2021/03/15 08:43:29;;;;;;;7.22;0.77;;;8.50;99.90;;;;;;5038817;28;20044;-65
2021/03/15 08:46:00;;;;;;;13.88;1.10;;;8.50;99.90;;;;;;5038764;28;20029;-65
2021/03/15 08:48:37;;;;;;;11.60;1.73;;;8.50;99.90;;;;;;5037530;28;20129;-65
2021/03/15 08:51:05;;;;;;;11.93;1.17;;;8.40;99.90;;;;;;5043774;28;20040;-65
2021/03/15 08:53:36;;;;;;;12.18;1.52;;;8.40;99.90;;;;;;5040219;28;20111;-65
2021/03/15 08:56:12;;;;;;;15.85;1.40;;;8.50;99.90;;;;;;5042229;28;20034;-66
2021/03/15 08:58:42;;;;;;;13.77;1.20;;;8.40;99.90;;;;;;5047362;28;20057;-65
2021/03/15 09:01:13;;;;;;;10.55;1.52;;;8.30;99.90;;;;;;5056708;28;20029;-64
2021/03/15 09:03:56;;;;;;;11.05;1.48;;;8.20;99.90;;;;;;5050803;28;20101;-65
2021/03/15 09:06:36;;;;;;;7.75;1.50;;;8.10;99.90;;;;;;5043406;28;20516;-65
2021/03/15 09:09:05;;;;;;;9.32;1.42;;;8.10;99.90;;;;;;5041963;28;20037;-65
2021/03/15 09:11:36;;;;;;;13.40;2.53;;;8.10;99.90;;;;;;5038974;28;20026;-65
2021/03/15 09:14:14;;;;;;;14.05;1.70;;;8.00;99.90;;;;;;5039042;28;20036;-65
2021/03/15 09:16:45;;;;;;;11.45;2.17;;;8.00;99.90;;;;;;5039066;28;20033;-65
2021/03/15 09:19:49;;;;;;;10.32;1.05;;;8.20;99.90;;;;;;5039549;28;20037;-64
2021/03/15 09:22:28;;;;;;;10.43;1.00;;;8.20;99.90;;;;;;5037643;28;20037;-65
2021/03/15 09:25:05;;;;;;;12.75;1.10;;;8.40;99.90;;;;;;5044292;28;20032;-66
2021/03/15 09:27:39;;;;;;;12.70;1.58;;;8.40;99.90;;;;;;5042307;28;20063;-65
2021/03/15 09:30:12;;;;;;;10.15;1.50;;;8.50;99.90;;;;;;5035748;28;20119;-64
2021/03/15 09:32:58;;;;;;;7.25;0.93;;;8.50;99.90;;;;;;5040209;28;20033;-65
2021/03/15 09:35:40;;;;;;;6.82;1.30;;;8.50;99.90;;;;;;5041221;28;20067;-65
2021/03/15 09:38:10;;;;;;;4.10;0.75;;;8.60;99.90;;;;;;5041589;28;20606;-65
2021/03/15 09:40:41;;;;;;;8.57;0.70;;;8.70;99.90;;;;;;5047379;28;20041;-66
2021/03/15 09:43:07;;;;;;;7.68;0.70;;;8.70;99.90;;;;;;5045666;28;20068;-65
2021/03/15 09:45:38;;;;;;;3.92;0.47;;;8.70;99.90;;;;;;5045236;28;20052;-65
2021/03/15 09:48:19;;;;;;;7.15;0.65;;;8.70;99.90;;;;;;5031750;28;20057;-65
2021/03/15 09:50:56;;;;;;;5.38;1.10;;;8.70;99.90;;;;;;5036188;28;20033;-65
2021/03/15 09:53:23;;;;;;;5.47;1.13;;;8.60;99.90;;;;;;5039784;28;20132;-65
2021/03/15 09:56:07;;;;;;;6.43;1.20;;;8.80;99.90;;;;;;5041305;28;20033;-65
2021/03/15 09:58:33;;;;;;;10.73;1.58;;;8.80;99.90;;;;;;5036427;28;20033;-64
2021/03/15 10:00:59;;;;;;;9.13;1.42;;;8.80;99.90;;;;;;5035705;28;20163;-64
2021/03/15 10:03:26;;;;;;;7.78;1.08;;;8.80;99.90;;;;;;5039730;28;20071;-65
2021/03/15 10:05:54;;;;;;;14.57;1.05;;;8.80;99.90;;;;;;5043835;28;20439;-65
2021/03/15 10:08:20;;;;;;;15.00;1.10;;;8.60;99.90;;;;;;5042871;28;20174;-65
2021/03/15 10:10:45;;;;;;;6.63;0.70;;;8.70;99.90;;;;;;5043096;28;20111;-64
2021/03/15 10:13:11;;;;;;;9.48;1.13;;;8.60;99.90;;;;;;5043514;28;20513;-64
2021/03/15 10:15:37;;;;;;;6.45;1.10;;;8.60;99.90;;;;;;5040354;28;20033;-64
2021/03/15 10:18:03;;;;;;;5.78;0.77;;;8.50;99.90;;;;;;5038021;28;20061;-64
2021/03/15 10:20:31;;;;;;;7.43;0.68;;;8.50;99.90;;;;;;5037545;28;20047;-65
2021/03/15 10:22:57;;;;;;;13.98;1.02;;;8.50;99.90;;;;;;5044310;28;20028;-64
2021/03/15 10:25:23;;;;;;;9.07;0.93;;;8.60;99.90;;;;;;5041409;28;20131;-65
2021/03/15 10:27:57;;;;;;;8.50;1.85;;;8.70;99.90;;;;;;5049044;28;20397;-65
2021/03/15 10:30:28;;;;;;;7.20;0.98;;;8.80;99.90;;;;;;5036551;28;20045;-64
2021/03/15 10:32:55;;;;;;;10.63;1.92;;;8.90;99.90;;;;;;5032031;28;20431;-65
2021/03/15 10:35:22;;;;;;;9.35;1.10;;;8.90;99.90;;;;;;5041607;28;20047;-65
2021/03/15 10:37:52;;;;;;;9.98;0.98;;;9.00;99.90;;;;;;5041963;28;20080;-64
2021/03/15 10:40:19;;;;;;;19.10;2.80;;;8.90;99.90;;;;;;5041428;28;20444;-66
2021/03/15 10:42:45;;;;;;;6.55;0.93;;;8.90;99.90;;;;;;5041782;28;20045;-65
2021/03/15 10:45:12;;;;;;;14.32;1.73;;;8.90;99.90;;;;;;5040410;28;20089;-64
2021/03/15 10:47:39;;;;;;;7.28;0.70;;;8.90;99.90;;;;;;5040303;28;20033;-65
2021/03/15 10:50:25;;;;;;;8.15;1.00;;;8.90;99.90;;;;;;5042847;28;20520;-65
2021/03/15 10:52:51;;;;;;;7.00;1.10;;;9.10;99.90;;;;;;5040185;28;20067;-65
2021/03/15 10:55:22;;;;;;;5.60;0.77;;;9.00;99.90;;;;;;5043329;28;20049;-65
2021/03/15 10:58:23;;;;;;;7.18;0.70;;;9.10;99.90;;;;;;5042029;28;20072;-65
2021/03/15 11:00:59;;;;;;;;;;;9.20;99.90;;;;;;5039354;28;20036;-65
2021/03/15 11:03:30;;;;;;;8.70;1.85;;;9.20;99.90;;;;;;5040112;28;19945;-64
2021/03/15 11:06:15;;;;;;;10.55;2.40;;;9.30;99.90;;;;;;5042831;28;20492;-64
2021/03/15 11:08:41;;;;;;;7.38;0.90;;;9.20;99.90;;;;;;5040620;28;20109;-65
2021/03/15 11:11:13;;;;;;;7.47;1.55;;;9.30;99.90;;;;;;5043205;28;20394;-65
2021/03/15 11:13:50;;;;;;;8.95;0.98;;;9.40;99.90;;;;;;5037787;28;20116;-65
2021/03/15 11:16:17;;;;;;;7.40;0.70;;;9.60;99.90;;;;;;5038071;28;20061;-65
2021/03/15 11:18:43;;;;;;;7.07;0.75;;;9.70;99.90;;;;;;5038866;28;20483;-65
2021/03/15 11:21:10;;;;;;;8.48;0.88;;;9.70;99.90;;;;;;5040237;28;20124;-65
2021/03/15 11:23:38;;;;;;;2.75;0.70;;;9.60;99.90;;;;;;5038704;28;20048;-59
2021/03/15 11:26:11;;;;;;;4.47;0.45;;;9.50;99.90;;;;;;5034479;28;20394;-65
2021/03/15 11:28:45;;;;;;;16.73;1.33;;;9.40;99.90;;;;;;5039916;28;20049;-65
2021/03/15 11:31:16;;;;;;;13.88;2.03;;;9.30;99.90;;;;;;5027743;28;20034;-65
2021/03/15 11:33:50;;;;;;;10.50;1.08;;;9.30;99.90;;;;;;5018944;28;20034;-65
2021/03/15 11:36:18;;;;;;;7.63;0.85;;;9.20;99.90;;;;;;5021263;28;20618;-65
2021/03/15 11:38:52;;;;;;;8.43;1.02;;;9.20;99.90;;;;;;5037689;28;20789;-65
2021/03/15 11:41:23;;;;;;;9.68;1.38;;;9.30;99.90;;;;;;5038910;28;20398;-65
2021/03/15 11:43:49;;;;;;;7.60;0.90;;;9.30;99.90;;;;;;5032270;28;20063;-65
2021/03/15 11:46:16;;;;;;;11.73;1.13;;;9.30;99.90;;;;;;5034616;28;20033;-65
2021/03/15 11:48:46;;;;;;;15.38;1.23;;;9.30;99.90;;;;;;5028879;28;20033;-65
2021/03/15 11:51:16;;;;;;;5.95;1.10;;;9.20;99.90;;;;;;5028591;28;20037;-65
2021/03/15 11:53:43;;;;;;;11.43;1.25;;;9.00;99.90;;;;;;5028120;28;20033;-64
2021/03/15 11:56:08;;;;;;;14.93;1.40;;;8.80;99.90;;;;;;5029816;28;20057;-64
2021/03/15 11:58:35;;;;;;;6.47;1.23;;;8.60;99.90;;;;;;5030910;28;20498;-65
2021/03/15 12:01:01;;;;;;;9.60;1.35;;;8.50;99.90;;;;;;5029553;28;20045;-65
2021/03/15 12:03:26;;;;;;;13.05;1.20;;;8.50;99.90;;;;;;5029891;28;20643;-64
2021/03/15 12:05:52;;;;;;;7.88;1.08;;;8.50;99.90;;;;;;5032826;28;20041;-64
2021/03/15 12:08:18;;;;;;;10.65;1.38;;;8.50;99.90;;;;;;5030275;28;20037;-65
2021/03/15 12:10:44;;;;;;;13.82;1.42;;;8.50;99.90;;;;;;5031182;28;20033;-64
2021/03/15 12:13:10;;;;;;;17.33;2.40;;;8.50;99.90;;;;;;5035029;28;20029;-65
2021/03/15 12:15:36;;;;;;;12.95;3.00;;;8.70;99.90;;;;;;5037568;28;20033;-64
2021/03/15 12:18:03;;;;;;;13.25;2.22;;;9.10;99.90;;;;;;5038521;28;20124;-65
2021/03/15 12:20:28;;;;;;;6.40;0.75;;;9.30;99.90;;;;;;5030310;28;20613;-65
2021/03/15 12:22:54;;;;;;;8.15;0.82;;;9.30;99.90;;;;;;5030343;28;20136;-64
2021/03/15 12:25:20;;;;;;;11.50;2.22;;;9.20;99.90;;;;;;5027113;28;20024;-64
2021/03/15 12:27:45;;;;;;;18.55;1.40;;;9.10;99.90;;;;;;5038179;28;20535;-65
2021/03/15 12:30:12;;;;;;;12.93;1.38;;;9.00;99.90;;;;;;5036598;28;20041;-65
2021/03/15 12:32:38;;;;;;;6.00;1.30;;;8.90;99.90;;;;;;5041753;28;20033;-65
2021/03/15 12:35:04;;;;;;;14.00;1.55;;;8.80;99.90;;;;;;5036867;28;20692;-64
2021/03/15 12:37:30;;;;;;;8.63;1.95;;;8.70;99.90;;;;;;5032226;28;20115;-64
2021/03/15 12:39:55;;;;;;;10.13;2.45;;;8.70;99.90;;;;;;5035157;28;20841;-65
2021/03/15 12:42:21;;;;;;;14.10;1.98;;;8.70;99.90;;;;;;5037258;28;20033;-65
2021/03/15 12:44:47;;;;;;;9.25;2.20;;;8.70;99.90;;;;;;5035066;28;20094;-65
2021/03/15 12:47:13;;;;;;;11.88;1.17;;;8.80;99.90;;;;;;5036438;28;20029;-64
2021/03/15 12:49:40;;;;;;;11.70;1.48;;;8.80;99.90;;;;;;5039159;28;20478;-64
2021/03/15 12:52:06;;;;;;;9.50;1.55;;;8.80;99.90;;;;;;5036695;28;20025;-64
2021/03/15 12:54:32;;;;;;;16.40;2.20;;;8.70;99.90;;;;;;5038962;28;20076;-64
2021/03/15 12:56:57;;;;;;;14.40;1.52;;;8.70;99.90;;;;;;5040222;28;20033;-64
2021/03/15 12:59:23;;;;;;;15.55;1.85;;;8.70;99.90;;;;;;5032722;28;20033;-65
2021/03/15 13:01:49;;;;;;;12.18;2.42;;;8.80;99.90;;;;;;5039271;28;20041;-64
2021/03/15 13:04:15;;;;;;;11.18;1.67;;;8.80;99.90;;;;;;5037476;28;20021;-64
2021/03/15 13:06:41;;;;;;;21.02;1.75;;;9.00;99.90;;;;;;5040688;28;20082;-65